sensor_id;sensor_type;location;lat;lon;timestamp;P1;P2;P0
49434;PMS5003;35306;53.458;-1.990;2022-07-18T00:00:36;9;9;
49434;PMS5003;35306;53.458;-1.990;2022-07-18T00:03:04;7;7;
49434;PMS5003;35306;53.458;-1.990;2022-07-18T00:05:33;9;7;
49434;PMS5003;35306;53.458;-1.990;2022-07-18T00:08:00;5;5;
49434;PMS5003;35306;53.458;-1.990;2022-07-18T00:10:28;10;8;
49434;PMS5003;35306;53.458;-1.990;2022-07-18T00:12:55;8;8;
49434;PMS5003;35306;53.458;-1.990;2022-07-18T00:18:15;8;8;
49434;PMS5003;35306;53.458;-1.990;2022-07-18T00:20:42;10;8;
49434;PMS5003;35306;53.458;-1.990;2022-07-18T00:23:10;8;8;
49434;PMS5003;35306;53.458;-1.990;2022-07-18T00:25:38;6;6;
49434;PMS5003;35306;53.458;-1.990;2022-07-18T00:28:06;6;6;
49434;PMS5003;35306;53.458;-1.990;2022-07-18T00:30:33;6;6;
49434;PMS5003;35306;53.458;-1.990;2022-07-18T00:33:00;8;8;
49434;PMS5003;35306;53.458;-1.990;2022-07-18T00:35:28;8;7;
49434;PMS5003;35306;53.458;-1.990;2022-07-18T00:37:55;8;6;
49434;PMS5003;35306;53.458;-1.990;2022-07-18T00:40:23;9;8;
49434;PMS5003;35306;53.458;-1.990;2022-07-18T00:42:50;9;7;
49434;PMS5003;35306;53.458;-1.990;2022-07-18T00:45:18;7;6;
49434;PMS5003;35306;53.458;-1.990;2022-07-18T00:47:46;10;8;
49434;PMS5003;35306;53.458;-1.990;2022-07-18T00:50:13;6;6;
49434;PMS5003;35306;53.458;-1.990;2022-07-18T00:52:41;9;6;
49434;PMS5003;35306;53.458;-1.990;2022-07-18T00:55:08;9;8;
49434;PMS5003;35306;53.458;-1.990;2022-07-18T00:57:36;9;9;
49434;PMS5003;35306;53.458;-1.990;2022-07-18T01:00:06;10;8;
49434;PMS5003;35306;53.458;-1.990;2022-07-18T01:02:36;8;8;
49434;PMS5003;35306;53.458;-1.990;2022-07-18T01:05:06;9;9;
49434;PMS5003;35306;53.458;-1.990;2022-07-18T01:07:35;6;6;
49434;PMS5003;35306;53.458;-1.990;2022-07-18T01:10:02;8;7;
49434;PMS5003;35306;53.458;-1.990;2022-07-18T01:12:31;9;9;
49434;PMS5003;35306;53.458;-1.990;2022-07-18T01:14:59;9;6;
49434;PMS5003;35306;53.458;-1.990;2022-07-18T01:17:26;9;8;
49434;PMS5003;35306;53.458;-1.990;2022-07-18T01:19:54;8;8;
49434;PMS5003;35306;53.458;-1.990;2022-07-18T01:22:21;8;8;
49434;PMS5003;35306;53.458;-1.990;2022-07-18T01:24:49;10;9;
49434;PMS5003;35306;53.458;-1.990;2022-07-18T01:27:17;10;8;
49434;PMS5003;35306;53.458;-1.990;2022-07-18T01:29:47;9;7;
49434;PMS5003;35306;53.458;-1.990;2022-07-18T01:32:17;11;10;
49434;PMS5003;35306;53.458;-1.990;2022-07-18T01:34:45;7;7;
49434;PMS5003;35306;53.458;-1.990;2022-07-18T01:37:13;7;6;
49434;PMS5003;35306;53.458;-1.990;2022-07-18T01:39:42;9;8;
49434;PMS5003;35306;53.458;-1.990;2022-07-18T01:42:11;9;7;
49434;PMS5003;35306;53.458;-1.990;2022-07-18T01:44:39;10;9;
49434;PMS5003;35306;53.458;-1.990;2022-07-18T01:47:07;10;10;
49434;PMS5003;35306;53.458;-1.990;2022-07-18T01:49:36;8;8;
49434;PMS5003;35306;53.458;-1.990;2022-07-18T01:52:05;9;9;
49434;PMS5003;35306;53.458;-1.990;2022-07-18T01:54:34;9;8;
49434;PMS5003;35306;53.458;-1.990;2022-07-18T01:57:04;6;5;
49434;PMS5003;35306;53.458;-1.990;2022-07-18T01:59:33;9;8;
49434;PMS5003;35306;53.458;-1.990;2022-07-18T02:02:02;9;9;
49434;PMS5003;35306;53.458;-1.990;2022-07-18T02:04:30;8;6;
49434;PMS5003;35306;53.458;-1.990;2022-07-18T02:06:58;6;6;
49434;PMS5003;35306;53.458;-1.990;2022-07-18T02:09:24;8;8;
49434;PMS5003;35306;53.458;-1.990;2022-07-18T02:11:52;8;8;
49434;PMS5003;35306;53.458;-1.990;2022-07-18T02:14:20;9;6;
49434;PMS5003;35306;53.458;-1.990;2022-07-18T02:16:47;6;6;
49434;PMS5003;35306;53.458;-1.990;2022-07-18T02:19:15;5;5;
49434;PMS5003;35306;53.458;-1.990;2022-07-18T02:21:42;6;6;
49434;PMS5003;35306;53.458;-1.990;2022-07-18T02:24:10;8;6;
49434;PMS5003;35306;53.458;-1.990;2022-07-18T02:26:38;8;6;
49434;PMS5003;35306;53.458;-1.990;2022-07-18T02:29:06;7;7;
49434;PMS5003;35306;53.458;-1.990;2022-07-18T02:31:33;8;8;
49434;PMS5003;35306;53.458;-1.990;2022-07-18T02:34:01;7;7;
49434;PMS5003;35306;53.458;-1.990;2022-07-18T02:36:28;9;6;
49434;PMS5003;35306;53.458;-1.990;2022-07-18T02:38:56;5;5;
49434;PMS5003;35306;53.458;-1.990;2022-07-18T02:41:24;5;5;
49434;PMS5003;35306;53.458;-1.990;2022-07-18T02:43:51;6;6;
49434;PMS5003;35306;53.458;-1.990;2022-07-18T02:46:20;8;8;
49434;PMS5003;35306;53.458;-1.990;2022-07-18T02:48:47;7;7;
49434;PMS5003;35306;53.458;-1.990;2022-07-18T02:51:15;7;5;
49434;PMS5003;35306;53.458;-1.990;2022-07-18T02:53:43;6;6;
49434;PMS5003;35306;53.458;-1.990;2022-07-18T02:56:10;6;6;
49434;PMS5003;35306;53.458;-1.990;2022-07-18T02:58:38;6;6;
49434;PMS5003;35306;53.458;-1.990;2022-07-18T03:01:06;6;5;
49434;PMS5003;35306;53.458;-1.990;2022-07-18T03:03:34;6;6;
49434;PMS5003;35306;53.458;-1.990;2022-07-18T03:06:02;5;5;
49434;PMS5003;35306;53.458;-1.990;2022-07-18T03:08:29;7;5;
49434;PMS5003;35306;53.458;-1.990;2022-07-18T03:10:57;6;6;
49434;PMS5003;35306;53.458;-1.990;2022-07-18T03:13:25;7;6;
49434;PMS5003;35306;53.458;-1.990;2022-07-18T03:15:52;7;7;
49434;PMS5003;35306;53.458;-1.990;2022-07-18T03:18:20;6;6;
49434;PMS5003;35306;53.458;-1.990;2022-07-18T03:20:47;5;5;
49434;PMS5003;35306;53.458;-1.990;2022-07-18T03:23:15;11;7;
49434;PMS5003;35306;53.458;-1.990;2022-07-18T03:25:43;7;7;
49434;PMS5003;35306;53.458;-1.990;2022-07-18T03:28:10;5;5;
49434;PMS5003;35306;53.458;-1.990;2022-07-18T03:30:38;7;5;
49434;PMS5003;35306;53.458;-1.990;2022-07-18T03:33:06;7;5;
49434;PMS5003;35306;53.458;-1.990;2022-07-18T03:35:33;5;5;
49434;PMS5003;35306;53.458;-1.990;2022-07-18T03:38:01;5;5;
49434;PMS5003;35306;53.458;-1.990;2022-07-18T03:40:28;5;5;
49434;PMS5003;35306;53.458;-1.990;2022-07-18T03:42:56;5;4;
49434;PMS5003;35306;53.458;-1.990;2022-07-18T03:45:24;5;3;
49434;PMS5003;35306;53.458;-1.990;2022-07-18T03:47:51;6;6;
49434;PMS5003;35306;53.458;-1.990;2022-07-18T03:50:19;5;5;
49434;PMS5003;35306;53.458;-1.990;2022-07-18T03:52:47;7;6;
49434;PMS5003;35306;53.458;-1.990;2022-07-18T03:55:14;6;5;
49434;PMS5003;35306;53.458;-1.990;2022-07-18T03:57:42;5;5;
49434;PMS5003;35306;53.458;-1.990;2022-07-18T04:00:10;4;4;
49434;PMS5003;35306;53.458;-1.990;2022-07-18T04:02:38;6;6;
49434;PMS5003;35306;53.458;-1.990;2022-07-18T04:05:07;7;7;
49434;PMS5003;35306;53.458;-1.990;2022-07-18T04:07:35;6;6;
49434;PMS5003;35306;53.458;-1.990;2022-07-18T04:10:04;8;6;
49434;PMS5003;35306;53.458;-1.990;2022-07-18T04:12:33;3;3;
49434;PMS5003;35306;53.458;-1.990;2022-07-18T04:15:00;5;5;
49434;PMS5003;35306;53.458;-1.990;2022-07-18T04:17:28;7;6;
49434;PMS5003;35306;53.458;-1.990;2022-07-18T04:19:55;5;5;
49434;PMS5003;35306;53.458;-1.990;2022-07-18T04:22:23;6;6;
49434;PMS5003;35306;53.458;-1.990;2022-07-18T04:24:50;5;5;
49434;PMS5003;35306;53.458;-1.990;2022-07-18T04:27:18;6;6;
49434;PMS5003;35306;53.458;-1.990;2022-07-18T04:29:45;6;5;
49434;PMS5003;35306;53.458;-1.990;2022-07-18T04:32:12;4;4;
49434;PMS5003;35306;53.458;-1.990;2022-07-18T04:34:40;6;5;
49434;PMS5003;35306;53.458;-1.990;2022-07-18T04:37:07;6;6;
49434;PMS5003;35306;53.458;-1.990;2022-07-18T04:39:35;6;6;
49434;PMS5003;35306;53.458;-1.990;2022-07-18T04:42:02;8;6;
49434;PMS5003;35306;53.458;-1.990;2022-07-18T04:44:30;5;5;
49434;PMS5003;35306;53.458;-1.990;2022-07-18T04:46:58;5;5;
49434;PMS5003;35306;53.458;-1.990;2022-07-18T04:49:25;6;6;
49434;PMS5003;35306;53.458;-1.990;2022-07-18T04:51:53;7;7;
49434;PMS5003;35306;53.458;-1.990;2022-07-18T04:54:20;6;6;
49434;PMS5003;35306;53.458;-1.990;2022-07-18T04:56:48;6;6;
49434;PMS5003;35306;53.458;-1.990;2022-07-18T04:59:16;8;8;
49434;PMS5003;35306;53.458;-1.990;2022-07-18T05:01:43;7;5;
49434;PMS5003;35306;53.458;-1.990;2022-07-18T05:04:11;8;7;
49434;PMS5003;35306;53.458;-1.990;2022-07-18T05:06:39;7;6;
49434;PMS5003;35306;53.458;-1.990;2022-07-18T05:09:07;7;6;
49434;PMS5003;35306;53.458;-1.990;2022-07-18T05:11:34;5;5;
49434;PMS5003;35306;53.458;-1.990;2022-07-18T05:14:02;6;6;
49434;PMS5003;35306;53.458;-1.990;2022-07-18T05:16:29;9;5;
49434;PMS5003;35306;53.458;-1.990;2022-07-18T05:18:56;10;10;
49434;PMS5003;35306;53.458;-1.990;2022-07-18T05:21:23;6;6;
49434;PMS5003;35306;53.458;-1.990;2022-07-18T05:23:51;8;7;
49434;PMS5003;35306;53.458;-1.990;2022-07-18T05:26:18;7;7;
49434;PMS5003;35306;53.458;-1.990;2022-07-18T05:28:46;6;5;
49434;PMS5003;35306;53.458;-1.990;2022-07-18T05:31:14;6;6;
49434;PMS5003;35306;53.458;-1.990;2022-07-18T05:33:41;9;8;
49434;PMS5003;35306;53.458;-1.990;2022-07-18T05:36:09;9;8;
49434;PMS5003;35306;53.458;-1.990;2022-07-18T05:38:37;8;7;
49434;PMS5003;35306;53.458;-1.990;2022-07-18T05:41:05;7;5;
49434;PMS5003;35306;53.458;-1.990;2022-07-18T05:43:33;7;7;
49434;PMS5003;35306;53.458;-1.990;2022-07-18T05:46:00;8;7;
49434;PMS5003;35306;53.458;-1.990;2022-07-18T05:48:28;8;7;
49434;PMS5003;35306;53.458;-1.990;2022-07-18T05:50:56;8;6;
49434;PMS5003;35306;53.458;-1.990;2022-07-18T05:53:23;8;8;
49434;PMS5003;35306;53.458;-1.990;2022-07-18T05:55:51;11;11;
49434;PMS5003;35306;53.458;-1.990;2022-07-18T05:58:18;10;10;
49434;PMS5003;35306;53.458;-1.990;2022-07-18T06:00:46;9;9;
49434;PMS5003;35306;53.458;-1.990;2022-07-18T06:03:13;9;8;
49434;PMS5003;35306;53.458;-1.990;2022-07-18T06:05:41;6;6;
49434;PMS5003;35306;53.458;-1.990;2022-07-18T06:08:08;7;6;
49434;PMS5003;35306;53.458;-1.990;2022-07-18T06:10:36;6;6;
49434;PMS5003;35306;53.458;-1.990;2022-07-18T06:13:04;8;8;
49434;PMS5003;35306;53.458;-1.990;2022-07-18T06:15:32;9;8;
49434;PMS5003;35306;53.458;-1.990;2022-07-18T06:18:00;6;6;
49434;PMS5003;35306;53.458;-1.990;2022-07-18T06:20:27;8;8;
49434;PMS5003;35306;53.458;-1.990;2022-07-18T06:22:55;5;5;
49434;PMS5003;35306;53.458;-1.990;2022-07-18T06:25:22;12;8;
49434;PMS5003;35306;53.458;-1.990;2022-07-18T06:27:50;9;7;
49434;PMS5003;35306;53.458;-1.990;2022-07-18T06:30:17;5;5;
49434;PMS5003;35306;53.458;-1.990;2022-07-18T06:32:45;6;6;
49434;PMS5003;35306;53.458;-1.990;2022-07-18T06:35:12;8;8;
49434;PMS5003;35306;53.458;-1.990;2022-07-18T06:37:40;5;5;
49434;PMS5003;35306;53.458;-1.990;2022-07-18T06:40:08;6;5;
49434;PMS5003;35306;53.458;-1.990;2022-07-18T06:42:35;7;7;
49434;PMS5003;35306;53.458;-1.990;2022-07-18T06:45:03;7;7;
49434;PMS5003;35306;53.458;-1.990;2022-07-18T06:47:34;6;5;
49434;PMS5003;35306;53.458;-1.990;2022-07-18T06:50:02;6;6;
49434;PMS5003;35306;53.458;-1.990;2022-07-18T06:52:30;6;6;
49434;PMS5003;35306;53.458;-1.990;2022-07-18T06:54:58;5;5;
49434;PMS5003;35306;53.458;-1.990;2022-07-18T06:57:25;6;5;
49434;PMS5003;35306;53.458;-1.990;2022-07-18T06:59:53;6;6;
49434;PMS5003;35306;53.458;-1.990;2022-07-18T07:02:20;6;6;
49434;PMS5003;35306;53.458;-1.990;2022-07-18T07:04:48;7;7;
49434;PMS5003;35306;53.458;-1.990;2022-07-18T07:07:16;4;4;
49434;PMS5003;35306;53.458;-1.990;2022-07-18T07:09:43;9;8;
49434;PMS5003;35306;53.458;-1.990;2022-07-18T07:12:11;9;7;
49434;PMS5003;35306;53.458;-1.990;2022-07-18T07:14:39;8;8;
49434;PMS5003;35306;53.458;-1.990;2022-07-18T07:17:06;8;8;
49434;PMS5003;35306;53.458;-1.990;2022-07-18T07:19:34;7;7;
49434;PMS5003;35306;53.458;-1.990;2022-07-18T07:22:02;6;6;
49434;PMS5003;35306;53.458;-1.990;2022-07-18T07:24:29;7;7;
49434;PMS5003;35306;53.458;-1.990;2022-07-18T07:26:57;6;6;
49434;PMS5003;35306;53.458;-1.990;2022-07-18T07:29:24;6;5;
49434;PMS5003;35306;53.458;-1.990;2022-07-18T07:31:51;11;10;
49434;PMS5003;35306;53.458;-1.990;2022-07-18T07:34:18;9;8;
49434;PMS5003;35306;53.458;-1.990;2022-07-18T07:36:46;7;7;
49434;PMS5003;35306;53.458;-1.990;2022-07-18T07:39:14;8;8;
49434;PMS5003;35306;53.458;-1.990;2022-07-18T07:41:41;8;8;
49434;PMS5003;35306;53.458;-1.990;2022-07-18T07:44:09;6;6;
49434;PMS5003;35306;53.458;-1.990;2022-07-18T07:46:36;6;6;
49434;PMS5003;35306;53.458;-1.990;2022-07-18T07:49:05;10;7;
49434;PMS5003;35306;53.458;-1.990;2022-07-18T07:51:33;7;7;
49434;PMS5003;35306;53.458;-1.990;2022-07-18T07:54:01;11;8;
49434;PMS5003;35306;53.458;-1.990;2022-07-18T07:56:29;6;6;
49434;PMS5003;35306;53.458;-1.990;2022-07-18T07:58:57;3;3;
49434;PMS5003;35306;53.458;-1.990;2022-07-18T08:01:25;5;5;
49434;PMS5003;35306;53.458;-1.990;2022-07-18T08:03:52;7;5;
49434;PMS5003;35306;53.458;-1.990;2022-07-18T08:06:25;4;4;
49434;PMS5003;35306;53.458;-1.990;2022-07-18T08:08:52;8;6;
49434;PMS5003;35306;53.458;-1.990;2022-07-18T08:11:20;6;6;
49434;PMS5003;35306;53.458;-1.990;2022-07-18T08:13:47;2;2;
49434;PMS5003;35306;53.458;-1.990;2022-07-18T08:16:15;4;4;
49434;PMS5003;35306;53.458;-1.990;2022-07-18T08:18:42;6;6;
49434;PMS5003;35306;53.458;-1.990;2022-07-18T08:21:10;5;5;
49434;PMS5003;35306;53.458;-1.990;2022-07-18T08:23:38;6;6;
49434;PMS5003;35306;53.458;-1.990;2022-07-18T08:26:06;7;6;
49434;PMS5003;35306;53.458;-1.990;2022-07-18T08:28:33;5;5;
49434;PMS5003;35306;53.458;-1.990;2022-07-18T08:31:01;4;4;
49434;PMS5003;35306;53.458;-1.990;2022-07-18T08:33:28;8;7;
49434;PMS5003;35306;53.458;-1.990;2022-07-18T08:35:56;5;4;
49434;PMS5003;35306;53.458;-1.990;2022-07-18T08:38:24;5;5;
49434;PMS5003;35306;53.458;-1.990;2022-07-18T08:40:52;4;4;
49434;PMS5003;35306;53.458;-1.990;2022-07-18T08:43:20;4;4;
49434;PMS5003;35306;53.458;-1.990;2022-07-18T08:45:51;6;6;
49434;PMS5003;35306;53.458;-1.990;2022-07-18T08:48:20;7;5;
49434;PMS5003;35306;53.458;-1.990;2022-07-18T08:50:49;4;4;
49434;PMS5003;35306;53.458;-1.990;2022-07-18T08:53:17;7;7;
49434;PMS5003;35306;53.458;-1.990;2022-07-18T08:55:45;3;3;
49434;PMS5003;35306;53.458;-1.990;2022-07-18T08:58:13;3;3;
49434;PMS5003;35306;53.458;-1.990;2022-07-18T09:00:41;4;4;
49434;PMS5003;35306;53.458;-1.990;2022-07-18T09:03:08;6;6;
49434;PMS5003;35306;53.458;-1.990;2022-07-18T09:05:35;5;5;
49434;PMS5003;35306;53.458;-1.990;2022-07-18T09:08:11;6;5;
49434;PMS5003;35306;53.458;-1.990;2022-07-18T09:10:40;6;5;
49434;PMS5003;35306;53.458;-1.990;2022-07-18T09:13:13;3;3;
49434;PMS5003;35306;53.458;-1.990;2022-07-18T09:15:55;8;7;
49434;PMS5003;35306;53.458;-1.990;2022-07-18T09:18:26;6;6;
49434;PMS5003;35306;53.458;-1.990;2022-07-18T09:20:58;5;5;
49434;PMS5003;35306;53.458;-1.990;2022-07-18T09:23:27;6;5;
49434;PMS5003;35306;53.458;-1.990;2022-07-18T09:25:55;5;5;
49434;PMS5003;35306;53.458;-1.990;2022-07-18T09:28:23;6;5;
49434;PMS5003;35306;53.458;-1.990;2022-07-18T09:30:50;5;5;
49434;PMS5003;35306;53.458;-1.990;2022-07-18T09:33:18;6;4;
49434;PMS5003;35306;53.458;-1.990;2022-07-18T09:35:47;4;4;
49434;PMS5003;35306;53.458;-1.990;2022-07-18T09:38:16;6;6;
49434;PMS5003;35306;53.458;-1.990;2022-07-18T09:40:45;6;6;
49434;PMS5003;35306;53.458;-1.990;2022-07-18T09:43:15;7;7;
49434;PMS5003;35306;53.458;-1.990;2022-07-18T09:45:45;5;5;
49434;PMS5003;35306;53.458;-1.990;2022-07-18T09:48:15;6;6;
49434;PMS5003;35306;53.458;-1.990;2022-07-18T09:50:51;4;4;
49434;PMS5003;35306;53.458;-1.990;2022-07-18T09:53:21;5;3;
49434;PMS5003;35306;53.458;-1.990;2022-07-18T09:55:51;3;3;
49434;PMS5003;35306;53.458;-1.990;2022-07-18T09:58:20;4;4;
49434;PMS5003;35306;53.458;-1.990;2022-07-18T10:00:49;6;6;
49434;PMS5003;35306;53.458;-1.990;2022-07-18T10:03:17;7;5;
49434;PMS5003;35306;53.458;-1.990;2022-07-18T10:05:45;3;3;
49434;PMS5003;35306;53.458;-1.990;2022-07-18T10:08:15;6;4;
49434;PMS5003;35306;53.458;-1.990;2022-07-18T10:10:45;7;7;
49434;PMS5003;35306;53.458;-1.990;2022-07-18T10:13:14;5;5;
49434;PMS5003;35306;53.458;-1.990;2022-07-18T10:15:42;6;6;
49434;PMS5003;35306;53.458;-1.990;2022-07-18T10:18:12;5;5;
49434;PMS5003;35306;53.458;-1.990;2022-07-18T10:20:42;5;5;
49434;PMS5003;35306;53.458;-1.990;2022-07-18T10:23:15;5;5;
49434;PMS5003;35306;53.458;-1.990;2022-07-18T10:25:44;5;5;
49434;PMS5003;35306;53.458;-1.990;2022-07-18T10:28:30;6;6;
49434;PMS5003;35306;53.458;-1.990;2022-07-18T10:31:11;4;3;
49434;PMS5003;35306;53.458;-1.990;2022-07-18T10:33:41;4;3;
49434;PMS5003;35306;53.458;-1.990;2022-07-18T10:36:10;4;4;
49434;PMS5003;35306;53.458;-1.990;2022-07-18T10:38:39;4;4;
49434;PMS5003;35306;53.458;-1.990;2022-07-18T10:41:30;8;6;
49434;PMS5003;35306;53.458;-1.990;2022-07-18T10:43:57;3;3;
49434;PMS5003;35306;53.458;-1.990;2022-07-18T10:46:26;5;4;
49434;PMS5003;35306;53.458;-1.990;2022-07-18T10:49:59;7;7;
49434;PMS5003;35306;53.458;-1.990;2022-07-18T10:53:00;6;6;
49434;PMS5003;35306;53.458;-1.990;2022-07-18T10:55:28;6;5;
49434;PMS5003;35306;53.458;-1.990;2022-07-18T10:58:28;3;3;
49434;PMS5003;35306;53.458;-1.990;2022-07-18T11:01:12;6;6;
49434;PMS5003;35306;53.458;-1.990;2022-07-18T11:03:44;5;5;
49434;PMS5003;35306;53.458;-1.990;2022-07-18T11:06:11;4;4;
49434;PMS5003;35306;53.458;-1.990;2022-07-18T11:08:39;5;5;
49434;PMS5003;35306;53.458;-1.990;2022-07-18T11:11:09;3;3;
49434;PMS5003;35306;53.458;-1.990;2022-07-18T11:13:38;3;3;
49434;PMS5003;35306;53.458;-1.990;2022-07-18T11:16:08;5;5;
49434;PMS5003;35306;53.458;-1.990;2022-07-18T11:19:15;3;3;
49434;PMS5003;35306;53.458;-1.990;2022-07-18T11:21:45;5;5;
49434;PMS5003;35306;53.458;-1.990;2022-07-18T11:24:12;5;5;
49434;PMS5003;35306;53.458;-1.990;2022-07-18T11:26:44;5;3;
49434;PMS5003;35306;53.458;-1.990;2022-07-18T11:29:15;3;3;
49434;PMS5003;35306;53.458;-1.990;2022-07-18T11:31:45;3;3;
49434;PMS5003;35306;53.458;-1.990;2022-07-18T11:34:13;4;4;
49434;PMS5003;35306;53.458;-1.990;2022-07-18T11:36:42;2;2;
49434;PMS5003;35306;53.458;-1.990;2022-07-18T11:39:10;4;4;
49434;PMS5003;35306;53.458;-1.990;2022-07-18T11:41:38;4;4;
49434;PMS5003;35306;53.458;-1.990;2022-07-18T11:44:15;4;4;
49434;PMS5003;35306;53.458;-1.990;2022-07-18T11:44:26;4;4;
49434;PMS5003;35306;53.458;-1.990;2022-07-18T11:47:01;5;5;
49434;PMS5003;35306;53.458;-1.990;2022-07-18T11:49:30;6;3;
49434;PMS5003;35306;53.458;-1.990;2022-07-18T11:51:58;5;4;
49434;PMS5003;35306;53.458;-1.990;2022-07-18T11:54:25;5;3;
49434;PMS5003;35306;53.458;-1.990;2022-07-18T11:56:53;4;4;
49434;PMS5003;35306;53.458;-1.990;2022-07-18T11:59:22;4;3;
49434;PMS5003;35306;53.458;-1.990;2022-07-18T12:01:49;4;4;
49434;PMS5003;35306;53.458;-1.990;2022-07-18T12:04:18;3;3;
49434;PMS5003;35306;53.458;-1.990;2022-07-18T12:07:11;4;4;
49434;PMS5003;35306;53.458;-1.990;2022-07-18T12:09:39;4;4;
49434;PMS5003;35306;53.458;-1.990;2022-07-18T12:12:07;6;4;
49434;PMS5003;35306;53.458;-1.990;2022-07-18T12:14:36;4;4;
49434;PMS5003;35306;53.458;-1.990;2022-07-18T12:17:04;5;5;
49434;PMS5003;35306;53.458;-1.990;2022-07-18T12:19:34;6;3;
49434;PMS5003;35306;53.458;-1.990;2022-07-18T12:22:06;3;3;
49434;PMS5003;35306;53.458;-1.990;2022-07-18T12:24:35;4;4;
49434;PMS5003;35306;53.458;-1.990;2022-07-18T12:27:12;4;4;
49434;PMS5003;35306;53.458;-1.990;2022-07-18T12:30:17;4;4;
49434;PMS5003;35306;53.458;-1.990;2022-07-18T12:32:46;5;5;
49434;PMS5003;35306;53.458;-1.990;2022-07-18T12:35:16;4;3;
49434;PMS5003;35306;53.458;-1.990;2022-07-18T12:37:52;6;5;
49434;PMS5003;35306;53.458;-1.990;2022-07-18T12:40:21;4;4;
49434;PMS5003;35306;53.458;-1.990;2022-07-18T12:42:51;5;5;
49434;PMS5003;35306;53.458;-1.990;2022-07-18T12:45:29;4;4;
49434;PMS5003;35306;53.458;-1.990;2022-07-18T12:47:57;4;4;
49434;PMS5003;35306;53.458;-1.990;2022-07-18T12:50:25;4;4;
49434;PMS5003;35306;53.458;-1.990;2022-07-18T12:52:52;4;4;
49434;PMS5003;35306;53.458;-1.990;2022-07-18T12:55:20;3;3;
49434;PMS5003;35306;53.458;-1.990;2022-07-18T12:57:48;2;2;
49434;PMS5003;35306;53.458;-1.990;2022-07-18T13:00:15;4;4;
49434;PMS5003;35306;53.458;-1.990;2022-07-18T13:02:43;5;5;
49434;PMS5003;35306;53.458;-1.990;2022-07-18T13:05:11;2;2;
49434;PMS5003;35306;53.458;-1.990;2022-07-18T13:07:38;5;5;
49434;PMS5003;35306;53.458;-1.990;2022-07-18T13:10:06;5;5;
49434;PMS5003;35306;53.458;-1.990;2022-07-18T13:12:34;4;4;
49434;PMS5003;35306;53.458;-1.990;2022-07-18T13:15:02;4;3;
49434;PMS5003;35306;53.458;-1.990;2022-07-18T13:17:31;3;3;
49434;PMS5003;35306;53.458;-1.990;2022-07-18T13:19:58;4;4;
49434;PMS5003;35306;53.458;-1.990;2022-07-18T13:22:26;5;4;
49434;PMS5003;35306;53.458;-1.990;2022-07-18T13:24:53;5;4;
49434;PMS5003;35306;53.458;-1.990;2022-07-18T13:27:21;3;3;
49434;PMS5003;35306;53.458;-1.990;2022-07-18T13:29:49;5;3;
49434;PMS5003;35306;53.458;-1.990;2022-07-18T13:32:16;3;3;
49434;PMS5003;35306;53.458;-1.990;2022-07-18T13:34:44;3;3;
49434;PMS5003;35306;53.458;-1.990;2022-07-18T13:37:12;3;3;
49434;PMS5003;35306;53.458;-1.990;2022-07-18T13:39:39;3;3;
49434;PMS5003;35306;53.458;-1.990;2022-07-18T13:42:06;3;3;
49434;PMS5003;35306;53.458;-1.990;2022-07-18T13:44:34;5;4;
49434;PMS5003;35306;53.458;-1.990;2022-07-18T13:47:02;4;4;
49434;PMS5003;35306;53.458;-1.990;2022-07-18T13:49:29;4;4;
49434;PMS5003;35306;53.458;-1.990;2022-07-18T13:51:57;5;5;
49434;PMS5003;35306;53.458;-1.990;2022-07-18T13:54:24;5;4;
49434;PMS5003;35306;53.458;-1.990;2022-07-18T13:56:52;3;3;
49434;PMS5003;35306;53.458;-1.990;2022-07-18T13:59:20;2;2;
49434;PMS5003;35306;53.458;-1.990;2022-07-18T14:01:47;6;5;
49434;PMS5003;35306;53.458;-1.990;2022-07-18T14:04:15;6;4;
49434;PMS5003;35306;53.458;-1.990;2022-07-18T14:06:43;5;3;
49434;PMS5003;35306;53.458;-1.990;2022-07-18T14:09:11;4;4;
49434;PMS5003;35306;53.458;-1.990;2022-07-18T14:11:38;4;4;
49434;PMS5003;35306;53.458;-1.990;2022-07-18T14:14:07;5;5;
49434;PMS5003;35306;53.458;-1.990;2022-07-18T14:16:34;5;4;
49434;PMS5003;35306;53.458;-1.990;2022-07-18T14:19:02;3;3;
49434;PMS5003;35306;53.458;-1.990;2022-07-18T14:21:30;4;4;
49434;PMS5003;35306;53.458;-1.990;2022-07-18T14:24:07;5;5;
49434;PMS5003;35306;53.458;-1.990;2022-07-18T14:26:34;3;3;
49434;PMS5003;35306;53.458;-1.990;2022-07-18T14:29:02;5;4;
49434;PMS5003;35306;53.458;-1.990;2022-07-18T14:31:29;2;2;
49434;PMS5003;35306;53.458;-1.990;2022-07-18T14:33:57;4;4;
49434;PMS5003;35306;53.458;-1.990;2022-07-18T14:36:25;4;4;
49434;PMS5003;35306;53.458;-1.990;2022-07-18T14:38:52;4;4;
49434;PMS5003;35306;53.458;-1.990;2022-07-18T14:41:20;4;4;
49434;PMS5003;35306;53.458;-1.990;2022-07-18T14:43:48;3;3;
49434;PMS5003;35306;53.458;-1.990;2022-07-18T14:46:15;5;5;
49434;PMS5003;35306;53.458;-1.990;2022-07-18T14:48:43;4;3;
49434;PMS5003;35306;53.458;-1.990;2022-07-18T14:51:11;4;4;
49434;PMS5003;35306;53.458;-1.990;2022-07-18T14:53:38;3;3;
49434;PMS5003;35306;53.458;-1.990;2022-07-18T14:56:06;5;5;
49434;PMS5003;35306;53.458;-1.990;2022-07-18T14:58:34;3;3;
49434;PMS5003;35306;53.458;-1.990;2022-07-18T15:01:01;4;4;
49434;PMS5003;35306;53.458;-1.990;2022-07-18T15:03:29;4;3;
49434;PMS5003;35306;53.458;-1.990;2022-07-18T15:05:57;6;3;
49434;PMS5003;35306;53.458;-1.990;2022-07-18T15:08:24;4;4;
49434;PMS5003;35306;53.458;-1.990;2022-07-18T15:10:52;5;3;
49434;PMS5003;35306;53.458;-1.990;2022-07-18T15:13:20;4;4;
49434;PMS5003;35306;53.458;-1.990;2022-07-18T15:15:47;5;3;
49434;PMS5003;35306;53.458;-1.990;2022-07-18T15:18:15;4;4;
49434;PMS5003;35306;53.458;-1.990;2022-07-18T15:20:43;4;4;
49434;PMS5003;35306;53.458;-1.990;2022-07-18T15:23:11;4;4;
49434;PMS5003;35306;53.458;-1.990;2022-07-18T15:25:39;3;3;
49434;PMS5003;35306;53.458;-1.990;2022-07-18T15:28:06;6;5;
49434;PMS5003;35306;53.458;-1.990;2022-07-18T15:30:34;3;3;
49434;PMS5003;35306;53.458;-1.990;2022-07-18T15:33:01;4;4;
49434;PMS5003;35306;53.458;-1.990;2022-07-18T15:35:29;4;4;
49434;PMS5003;35306;53.458;-1.990;2022-07-18T15:37:57;4;4;
49434;PMS5003;35306;53.458;-1.990;2022-07-18T15:40:24;4;2;
49434;PMS5003;35306;53.458;-1.990;2022-07-18T15:42:52;3;3;
49434;PMS5003;35306;53.458;-1.990;2022-07-18T15:45:20;4;4;
49434;PMS5003;35306;53.458;-1.990;2022-07-18T15:47:47;6;5;
49434;PMS5003;35306;53.458;-1.990;2022-07-18T15:50:15;6;4;
49434;PMS5003;35306;53.458;-1.990;2022-07-18T15:52:43;4;4;
49434;PMS5003;35306;53.458;-1.990;2022-07-18T15:55:11;4;4;
49434;PMS5003;35306;53.458;-1.990;2022-07-18T15:57:38;4;4;
49434;PMS5003;35306;53.458;-1.990;2022-07-18T16:00:07;5;3;
49434;PMS5003;35306;53.458;-1.990;2022-07-18T16:02:34;4;4;
49434;PMS5003;35306;53.458;-1.990;2022-07-18T16:05:02;5;5;
49434;PMS5003;35306;53.458;-1.990;2022-07-18T16:07:31;4;4;
49434;PMS5003;35306;53.458;-1.990;2022-07-18T16:09:58;4;4;
49434;PMS5003;35306;53.458;-1.990;2022-07-18T16:12:26;4;4;
49434;PMS5003;35306;53.458;-1.990;2022-07-18T16:14:54;4;4;
49434;PMS5003;35306;53.458;-1.990;2022-07-18T16:17:21;2;2;
49434;PMS5003;35306;53.458;-1.990;2022-07-18T16:19:49;4;4;
49434;PMS5003;35306;53.458;-1.990;2022-07-18T16:22:17;3;3;
49434;PMS5003;35306;53.458;-1.990;2022-07-18T16:24:44;3;3;
49434;PMS5003;35306;53.458;-1.990;2022-07-18T16:27:12;5;4;
49434;PMS5003;35306;53.458;-1.990;2022-07-18T16:29:40;4;4;
49434;PMS5003;35306;53.458;-1.990;2022-07-18T16:32:07;3;3;
49434;PMS5003;35306;53.458;-1.990;2022-07-18T16:34:34;6;4;
49434;PMS5003;35306;53.458;-1.990;2022-07-18T16:37:02;6;4;
49434;PMS5003;35306;53.458;-1.990;2022-07-18T16:39:29;1;1;
49434;PMS5003;35306;53.458;-1.990;2022-07-18T16:42:02;2;2;
49434;PMS5003;35306;53.458;-1.990;2022-07-18T16:44:29;2;2;